DataTemp.
Ø
Temp.
Max
Temp.
Min
UmiditàPressionePioggiaVento
Ø
Vento
dir. Ø
Vento
Max
Indice UV
Max
25.10.2020 00:0011.5°C11.5°C11.5°C94.7%1016.0hPa0.0mm0.0km/hSE0.0km/h0uvi
25.10.2020 00:0511.4°C11.4°C11.4°C94.2%1015.9hPa0.0mm0.2km/hSE2.2km/h0uvi
25.10.2020 00:1011.4°C11.4°C11.4°C95.0%1015.0hPa0.0mm0.4km/hSSW2.5km/h0uvi
25.10.2020 00:1511.4°C11.5°C11.4°C95.0%1015.0hPa0.0mm0.0km/hSSE1.4km/h0uvi
25.10.2020 00:2011.5°C11.5°C11.5°C95.0%1015.0hPa0.0mm0.2km/hSSE2.5km/h0uvi
25.10.2020 00:2511.6°C11.6°C11.5°C96.0%1015.0hPa0.0mm0.2km/hNE2.5km/h0uvi
25.10.2020 00:3011.6°C11.6°C11.6°C96.0%1015.0hPa0.0mm0.1km/hNE3.2km/h0uvi
25.10.2020 00:3511.7°C11.7°C11.6°C96.0%1015.0hPa0.0mm1.9km/hWSW5.0km/h0uvi
25.10.2020 00:4011.7°C11.7°C11.7°C96.0%1015.0hPa0.0mm1.1km/hNW4.3km/h0uvi
25.10.2020 00:4511.7°C11.7°C11.7°C97.0%1015.0hPa0.0mm1.3km/hNW3.6km/h0uvi
25.10.2020 00:5011.7°C11.7°C11.6°C96.0%1015.0hPa0.0mm1.9km/hNW5.0km/h0uvi
25.10.2020 00:5511.6°C11.6°C11.6°C96.5%1015.0hPa0.0mm0.6km/hNW2.2km/h0uvi
25.10.2020 01:0011.7°C11.7°C11.6°C97.0%1015.0hPa0.0mm0.1km/hNW2.5km/h0uvi
25.10.2020 01:0511.7°C11.7°C11.7°C97.0%1015.0hPa0.0mm0.4km/hNW3.6km/h0uvi
25.10.2020 01:1011.7°C11.7°C11.7°C97.0%1015.0hPa0.0mm0.2km/hNW3.2km/h0uvi
25.10.2020 01:1511.8°C11.8°C11.7°C97.0%1015.0hPa0.0mm0.3km/hWSW3.6km/h0uvi
25.10.2020 01:2011.8°C11.8°C11.8°C98.0%1015.0hPa0.0mm0.0km/hNW1.8km/h0uvi
25.10.2020 01:2511.9°C11.9°C11.9°C98.0%1015.0hPa0.0mm0.0km/hNW1.4km/h0uvi
25.10.2020 01:3011.9°C11.9°C11.8°C98.0%1015.0hPa0.0mm0.0km/hNW0.0km/h0uvi
25.10.2020 01:3511.9°C11.9°C11.9°C98.0%1015.0hPa0.0mm0.0km/hNW2.5km/h0uvi
25.10.2020 01:4011.9°C11.9°C11.9°C98.0%1015.0hPa0.0mm0.3km/hNW2.2km/h0uvi
25.10.2020 01:4511.9°C11.9°C11.9°C98.0%1015.0hPa0.0mm1.5km/hSSW2.5km/h0uvi
25.10.2020 01:5011.9°C11.9°C11.9°C98.0%1015.0hPa0.0mm0.7km/hSSW2.5km/h0uvi
25.10.2020 01:5511.9°C11.9°C11.9°C98.0%1015.0hPa0.0mm0.7km/hWSW2.5km/h0uvi
25.10.2020 02:0011.9°C11.9°C11.9°C98.0%1015.0hPa0.0mm0.0km/hWNW2.2km/h0uvi
25.10.2020 02:0511.9°C11.9°C11.9°C98.0%1015.2hPa0.0mm0.0km/hNW0.0km/h0uvi
25.10.2020 02:1011.9°C11.9°C11.9°C98.0%1016.0hPa0.0mm0.3km/hNE3.6km/h0uvi
25.10.2020 02:1511.9°C11.9°C11.9°C98.0%1016.0hPa0.0mm0.4km/hWSW3.6km/h0uvi
25.10.2020 02:2011.9°C11.9°C11.9°C98.0%1015.8hPa0.0mm1.3km/hWSW3.6km/h0uvi
25.10.2020 02:2511.9°C11.9°C11.8°C98.0%1015.0hPa0.0mm1.5km/hWSW4.3km/h0uvi
25.10.2020 02:3011.8°C11.8°C11.8°C98.0%1015.0hPa0.0mm0.8km/hWSW2.5km/h0uvi
25.10.2020 02:3511.7°C11.8°C11.7°C98.0%1015.0hPa0.0mm0.0km/hWNW0.0km/h0uvi
25.10.2020 02:4011.7°C11.7°C11.6°C98.0%1015.0hPa0.0mm0.0km/hNW0.0km/h0uvi
25.10.2020 02:4511.6°C11.6°C11.5°C98.0%1015.0hPa0.0mm0.0km/hNW1.4km/h0uvi
25.10.2020 02:5011.5°C11.5°C11.5°C98.0%1015.0hPa0.0mm0.0km/hNW0.0km/h0uvi
25.10.2020 02:5511.5°C11.5°C11.5°C98.0%1015.0hPa0.0mm0.0km/hNW2.2km/h0uvi
25.10.2020 03:0011.4°C11.4°C11.4°C98.0%1015.0hPa0.0mm0.0km/hNW1.4km/h0uvi
25.10.2020 03:0511.4°C11.4°C11.4°C98.0%1015.0hPa0.0mm0.0km/hNW0.0km/h0uvi
25.10.2020 03:1011.3°C11.4°C11.3°C98.0%1015.0hPa0.0mm1.7km/hSSW5.0km/h0uvi
25.10.2020 03:1511.4°C11.4°C11.4°C98.0%1015.0hPa0.0mm0.5km/hNW2.5km/h0uvi
25.10.2020 03:2011.3°C11.3°C11.3°C98.0%1015.0hPa0.0mm1.3km/hNW3.2km/h0uvi
25.10.2020 03:2511.3°C11.3°C11.3°C98.0%1015.0hPa0.0mm0.8km/hWSW3.6km/h0uvi
25.10.2020 03:3011.3°C11.3°C11.2°C98.0%1015.0hPa0.0mm0.2km/hSW1.4km/h0uvi
25.10.2020 03:3511.2°C11.2°C11.2°C98.0%1015.0hPa0.0mm0.0km/hSW0.0km/h0uvi
25.10.2020 03:4011.1°C11.1°C11.0°C98.0%1015.0hPa0.0mm0.0km/hSSW0.0km/h0uvi
25.10.2020 03:4511.0°C11.0°C11.0°C98.0%1015.0hPa0.0mm0.0km/hSSW1.8km/h0uvi
25.10.2020 03:5010.9°C10.9°C10.9°C98.0%1015.0hPa0.0mm0.0km/hSSW0.0km/h0uvi
25.10.2020 03:5510.9°C10.9°C10.9°C98.0%1015.0hPa0.0mm0.0km/hNW1.8km/h0uvi
25.10.2020 04:0010.9°C10.9°C10.9°C98.0%1015.0hPa0.0mm0.0km/hNW0.0km/h0uvi
25.10.2020 04:0510.9°C10.9°C10.9°C98.0%1015.0hPa0.0mm0.0km/hWNW0.0km/h0uvi
25.10.2020 04:1010.9°C10.9°C10.9°C98.0%1015.0hPa0.0mm0.0km/hNW1.4km/h0uvi
25.10.2020 04:1510.9°C10.9°C10.9°C98.0%1015.0hPa0.0mm0.0km/hWSW1.4km/h0uvi
25.10.2020 04:2010.9°C10.9°C10.9°C98.0%1015.0hPa0.0mm0.0km/hWSW0.0km/h0uvi
25.10.2020 04:2510.9°C10.9°C10.9°C98.0%1015.0hPa0.0mm0.0km/hWSW0.0km/h0uvi
25.10.2020 04:3011.0°C11.0°C10.9°C98.0%1015.0hPa0.0mm0.0km/hWSW0.0km/h0uvi
25.10.2020 04:3511.0°C11.0°C11.0°C98.0%1015.0hPa0.0mm0.0km/hWSW0.0km/h0uvi
25.10.2020 04:4011.0°C11.0°C11.0°C98.0%1015.0hPa0.0mm0.0km/hWNW0.0km/h0uvi
25.10.2020 04:4511.1°C11.1°C11.0°C98.0%1015.0hPa0.0mm0.0km/hWNW0.0km/h0uvi
25.10.2020 04:5011.1°C11.1°C11.1°C98.0%1015.0hPa0.0mm0.0km/hWNW0.0km/h0uvi
25.10.2020 04:5511.1°C11.1°C11.1°C98.0%1015.0hPa0.0mm0.0km/hNW0.0km/h0uvi
25.10.2020 05:0011.1°C11.1°C11.1°C98.0%1015.0hPa0.0mm0.0km/hWSW1.8km/h0uvi
25.10.2020 05:0511.2°C11.2°C11.1°C98.0%1015.0hPa0.0mm0.9km/hSSW2.5km/h0uvi
25.10.2020 05:1011.2°C11.2°C11.2°C98.0%1015.0hPa0.0mm1.9km/hSSW3.6km/h0uvi
25.10.2020 05:1511.2°C11.2°C11.2°C98.0%1015.0hPa0.0mm2.9km/hSSW5.0km/h0uvi
25.10.2020 05:2011.2°C11.2°C11.2°C98.0%1015.0hPa0.0mm2.3km/hSSW3.6km/h0uvi
25.10.2020 05:2511.2°C11.3°C11.2°C98.0%1015.0hPa0.0mm0.5km/hWSW1.4km/h0uvi
25.10.2020 05:3011.2°C11.3°C11.2°C98.0%1015.0hPa0.0mm0.0km/hWSW0.0km/h0uvi
25.10.2020 05:3511.3°C11.3°C11.3°C98.0%1015.0hPa0.0mm0.0km/hNW0.0km/h0uvi
25.10.2020 05:4011.3°C11.3°C11.3°C98.0%1015.0hPa0.0mm0.0km/hNW1.8km/h0uvi
25.10.2020 05:4511.3°C11.3°C11.3°C98.0%1015.0hPa0.0mm0.0km/hWNW2.5km/h0uvi
25.10.2020 05:5011.4°C11.4°C11.4°C98.0%1015.0hPa0.0mm0.0km/hWSW2.5km/h0uvi
25.10.2020 05:5511.4°C11.4°C11.4°C98.0%1015.0hPa0.0mm0.0km/hSSW3.2km/h0uvi
25.10.2020 06:0011.4°C11.4°C11.4°C98.0%1015.0hPa0.0mm3.4km/hSSW5.0km/h0uvi
25.10.2020 06:0511.4°C11.4°C11.4°C98.0%1015.0hPa0.0mm1.3km/hWSW4.0km/h0uvi
25.10.2020 06:1011.4°C11.4°C11.4°C98.0%1015.0hPa0.0mm3.0km/hSSW4.3km/h0uvi
25.10.2020 06:1511.5°C11.5°C11.5°C98.0%1015.0hPa0.0mm1.3km/hSSW3.2km/h0uvi
25.10.2020 06:2011.5°C11.5°C11.5°C98.0%1015.0hPa0.0mm0.0km/hSSW1.8km/h0uvi
25.10.2020 06:2511.5°C11.5°C11.5°C98.0%1015.0hPa0.0mm0.0km/hSSW1.8km/h0uvi
25.10.2020 06:3011.5°C11.5°C11.5°C98.0%1015.0hPa0.0mm0.0km/hSSW0.0km/h0uvi
25.10.2020 06:3511.5°C11.5°C11.5°C98.0%1015.0hPa0.0mm0.5km/hWSW2.2km/h0uvi
25.10.2020 06:4011.5°C11.5°C11.5°C98.0%1015.0hPa0.0mm0.0km/hWSW1.4km/h0uvi
25.10.2020 06:4511.5°C11.5°C11.5°C98.0%1015.0hPa0.0mm0.0km/hWNW0.0km/h0uvi
25.10.2020 06:5011.5°C11.5°C11.4°C98.0%1015.1hPa0.0mm0.0km/hNW0.0km/h0uvi
25.10.2020 06:5511.4°C11.4°C11.4°C98.0%1016.0hPa0.0mm0.0km/hNW0.0km/h0uvi
25.10.2020 07:0011.4°C11.4°C11.4°C98.0%1016.0hPa0.0mm0.0km/hSW1.4km/h0uvi
25.10.2020 07:0511.4°C11.4°C11.4°C98.0%1015.9hPa0.0mm0.0km/hSW0.0km/h0uvi
25.10.2020 07:1011.4°C11.4°C11.4°C98.0%1015.0hPa0.0mm0.0km/hNW0.0km/h0uvi
25.10.2020 07:1511.4°C11.4°C11.4°C98.0%1015.0hPa0.0mm0.0km/hNW0.0km/h0uvi
25.10.2020 07:2011.5°C11.5°C11.4°C98.0%1015.0hPa0.0mm0.0km/hNW0.0km/h0uvi
25.10.2020 07:2511.5°C11.5°C11.5°C98.0%1015.0hPa0.0mm0.0km/hWSW0.0km/h0uvi
25.10.2020 07:3011.5°C11.5°C11.5°C98.0%1015.0hPa0.0mm0.0km/hNW0.0km/h0uvi
25.10.2020 07:3511.5°C11.6°C11.5°C98.0%1015.1hPa0.0mm0.0km/hWNW0.0km/h0uvi
25.10.2020 07:4011.6°C11.6°C11.6°C98.0%1016.0hPa0.0mm0.0km/hWNW0.0km/h0uvi
25.10.2020 07:4511.6°C11.6°C11.6°C98.0%1016.0hPa0.0mm0.0km/hNW1.4km/h0uvi
25.10.2020 07:5011.7°C11.7°C11.6°C98.0%1016.0hPa0.0mm0.0km/hNW0.0km/h0uvi
25.10.2020 07:5511.7°C11.7°C11.7°C98.0%1016.0hPa0.0mm0.0km/hNW0.0km/h0uvi
25.10.2020 08:0011.7°C11.7°C11.7°C98.0%1016.0hPa0.0mm0.0km/hNW2.2km/h0uvi
25.10.2020 08:0511.7°C11.7°C11.7°C98.0%1016.0hPa0.0mm0.0km/hNW0.0km/h0uvi
25.10.2020 08:1011.7°C11.8°C11.7°C98.0%1016.0hPa0.0mm0.0km/hWSW0.0km/h0uvi
25.10.2020 08:1511.8°C11.8°C11.8°C98.0%1016.0hPa0.0mm0.0km/hNW2.2km/h0uvi
25.10.2020 08:2011.8°C11.9°C11.8°C98.0%1016.0hPa0.0mm0.0km/hWNW1.8km/h0uvi
25.10.2020 08:2511.9°C11.9°C11.9°C98.0%1016.0hPa0.0mm0.0km/hNW1.4km/h0uvi
25.10.2020 08:3011.9°C11.9°C11.9°C98.0%1016.0hPa0.0mm0.0km/hNW4.0km/h0uvi
25.10.2020 08:3511.9°C12.0°C11.9°C98.0%1016.0hPa0.0mm0.4km/hNW2.5km/h0uvi
25.10.2020 08:4012.0°C12.0°C12.0°C98.0%1016.0hPa0.0mm0.6km/hNW2.5km/h0uvi
25.10.2020 08:4512.0°C12.1°C12.0°C98.0%1016.0hPa0.0mm0.0km/hNW2.5km/h0uvi
25.10.2020 08:5012.1°C12.1°C12.1°C98.0%1015.8hPa0.0mm0.9km/hNW1.8km/h0uvi
25.10.2020 08:5512.2°C12.2°C12.1°C98.0%1015.0hPa0.0mm1.0km/hWNW3.2km/h0uvi
25.10.2020 09:0012.2°C12.3°C12.2°C98.0%1015.0hPa0.0mm0.6km/hNW3.2km/h0uvi
25.10.2020 09:0512.3°C12.3°C12.3°C98.0%1015.2hPa0.0mm0.8km/hNW2.2km/h0uvi
25.10.2020 09:1012.3°C12.4°C12.3°C98.0%1016.0hPa0.0mm0.5km/hSSW5.0km/h0uvi
25.10.2020 09:1512.5°C12.5°C12.5°C98.0%1016.0hPa0.0mm1.5km/hWSW2.5km/h0uvi
25.10.2020 09:2012.5°C12.5°C12.5°C98.0%1015.9hPa0.0mm1.6km/hWSW3.2km/h0uvi
25.10.2020 09:2512.5°C12.6°C12.5°C97.0%1015.0hPa0.0mm0.5km/hWSW2.2km/h0uvi
25.10.2020 09:3012.6°C12.7°C12.6°C97.0%1015.0hPa0.0mm0.1km/hWSW1.8km/h0uvi
25.10.2020 09:3512.7°C12.7°C12.7°C96.2%1015.0hPa0.0mm0.9km/hWSW3.6km/h0uvi
25.10.2020 09:4012.8°C12.8°C12.7°C95.4%1015.0hPa0.0mm1.4km/hSSW4.7km/h0uvi
25.10.2020 09:4512.8°C12.9°C12.8°C95.0%1015.0hPa0.0mm0.0km/hWSW2.5km/h0uvi
25.10.2020 09:5013.0°C13.0°C12.9°C94.3%1015.0hPa0.0mm0.2km/hWNW3.2km/h0uvi
25.10.2020 09:5513.0°C13.1°C13.0°C93.3%1015.0hPa0.0mm0.9km/hWSW3.2km/h0uvi
25.10.2020 10:0013.1°C13.1°C13.1°C92.3%1015.0hPa0.0mm0.6km/hW4.3km/h0uvi
25.10.2020 10:0513.1°C13.2°C13.1°C92.0%1015.0hPa0.0mm1.5km/hWSW5.4km/h0uvi
25.10.2020 10:1013.1°C13.2°C13.1°C89.0%1015.0hPa0.0mm1.4km/hWSW5.0km/h0uvi
25.10.2020 10:1513.3°C13.4°C13.1°C79.7%1015.0hPa0.0mm1.1km/hWSW3.2km/h0uvi
25.10.2020 10:2013.5°C13.5°C13.4°C75.0%1015.0hPa0.0mm0.7km/hWSW5.0km/h0uvi
25.10.2020 10:2513.5°C13.5°C13.5°C75.0%1015.0hPa0.0mm1.0km/hSSW3.2km/h0uvi
25.10.2020 10:3013.6°C13.6°C13.5°C74.7%1015.0hPa0.0mm0.9km/hWSW5.0km/h0uvi
25.10.2020 10:3513.5°C13.5°C13.5°C73.0%1015.0hPa0.0mm1.6km/hWSW4.3km/h0uvi
25.10.2020 10:4013.6°C13.7°C13.6°C72.0%1015.0hPa0.0mm0.6km/hWSW3.2km/h0uvi
25.10.2020 10:4513.7°C13.7°C13.7°C71.5%1015.0hPa0.0mm0.2km/hNW1.8km/h0uvi
25.10.2020 10:5013.8°C13.8°C13.7°C70.3%1015.0hPa0.0mm0.8km/hWSW2.5km/h0uvi
25.10.2020 10:5514.0°C14.1°C13.9°C68.3%1014.1hPa0.0mm0.4km/hWSW3.6km/h0uvi
25.10.2020 11:0014.3°C14.3°C14.2°C65.8%1014.0hPa0.0mm0.2km/hSSW2.2km/h1uvi
25.10.2020 11:0514.3°C14.4°C14.3°C64.6%1014.0hPa0.0mm0.8km/hSSW2.5km/h0uvi
25.10.2020 11:1014.2°C14.3°C14.2°C64.2%1014.0hPa0.0mm1.4km/hSSW3.6km/h0uvi
25.10.2020 11:1514.2°C14.2°C14.2°C68.2%1014.0hPa0.0mm2.0km/hSSW4.7km/h0uvi
25.10.2020 11:2014.2°C14.2°C14.2°C71.7%1014.0hPa0.0mm2.6km/hSSW4.7km/h0uvi
25.10.2020 11:2514.1°C14.1°C14.1°C71.4%1014.0hPa0.0mm1.9km/hSSW3.2km/h0uvi
25.10.2020 11:3014.2°C14.2°C14.2°C72.4%1014.0hPa0.0mm0.9km/hSSW2.2km/h0uvi
25.10.2020 11:3514.2°C14.3°C14.2°C69.6%1014.0hPa0.0mm1.3km/hSSW2.2km/h0uvi
25.10.2020 11:4014.4°C14.5°C14.3°C68.6%1014.0hPa0.0mm0.0km/hSSW2.5km/h0uvi
25.10.2020 11:4514.6°C14.6°C14.5°C64.3%1014.0hPa0.0mm0.3km/hNW2.5km/h0uvi
25.10.2020 11:5014.6°C14.6°C14.5°C60.0%1014.0hPa0.0mm0.9km/hNW2.5km/h0uvi
25.10.2020 11:5514.7°C14.7°C14.7°C60.3%1014.0hPa0.0mm0.1km/hNW2.5km/h0uvi
25.10.2020 12:0014.7°C14.8°C14.7°C59.8%1014.0hPa0.0mm0.2km/hSSW1.8km/h0uvi
25.10.2020 12:0514.8°C14.8°C14.8°C60.5%1014.0hPa0.0mm0.0km/hSSW2.2km/h1uvi
25.10.2020 12:1014.8°C14.9°C14.7°C60.0%1014.0hPa0.0mm0.2km/hNW2.5km/h0uvi
25.10.2020 12:1515.1°C15.3°C14.9°C62.2%1014.0hPa0.0mm0.0km/hWSW1.8km/h1uvi
25.10.2020 12:2015.5°C15.5°C15.4°C56.3%1014.0hPa0.0mm1.9km/hSSW5.0km/h1uvi
25.10.2020 12:2515.5°C15.6°C15.4°C56.0%1014.0hPa0.0mm0.3km/hSSW2.2km/h0uvi
25.10.2020 12:3015.5°C15.5°C15.5°C58.0%1014.0hPa0.0mm0.2km/hSSW5.0km/h0uvi
25.10.2020 12:3515.5°C15.5°C15.4°C57.7%1014.0hPa0.0mm1.6km/hWSW4.0km/h0uvi
25.10.2020 12:4015.7°C15.8°C15.5°C57.8%1014.0hPa0.0mm1.6km/hSSW4.7km/h1uvi
25.10.2020 12:4515.8°C15.8°C15.7°C57.0%1014.0hPa0.0mm0.8km/hSSW3.6km/h1uvi
25.10.2020 12:5015.7°C15.9°C15.6°C56.7%1013.8hPa0.0mm2.4km/hSSW4.7km/h1uvi
25.10.2020 12:5516.2°C16.4°C15.9°C53.8%1012.0hPa0.0mm2.7km/hWSW6.5km/h1uvi
25.10.2020 13:0016.1°C16.2°C16.1°C54.5%1012.0hPa0.0mm2.4km/hWSW5.4km/h1uvi
25.10.2020 13:0516.4°C16.5°C16.3°C54.8%1012.0hPa0.0mm3.8km/hSSW6.8km/h1uvi
25.10.2020 13:1016.4°C16.4°C16.3°C54.0%1012.0hPa0.0mm2.7km/hSSW5.8km/h1uvi
25.10.2020 13:1516.8°C17.0°C16.5°C51.4%1012.0hPa0.0mm3.0km/hSSW6.5km/h1uvi
25.10.2020 13:2017.1°C17.2°C17.0°C51.3%1012.0hPa0.0mm3.3km/hSSW8.6km/h1uvi
25.10.2020 13:2516.6°C16.9°C16.5°C50.8%1012.0hPa0.0mm3.7km/hSSW6.8km/h0uvi
25.10.2020 13:3016.9°C17.0°C16.8°C50.3%1012.0hPa0.0mm3.5km/hSSW5.0km/h0uvi
25.10.2020 13:3517.1°C17.1°C17.0°C49.0%1012.0hPa0.0mm4.3km/hSSW6.1km/h0uvi
25.10.2020 13:4017.0°C17.0°C16.9°C50.0%1012.0hPa0.0mm2.6km/hSSW5.4km/h0uvi
25.10.2020 13:4516.7°C16.8°C16.7°C50.3%1012.0hPa0.0mm0.4km/hNW2.2km/h0uvi
25.10.2020 13:5016.8°C16.8°C16.7°C51.5%1012.0hPa0.0mm1.8km/hWSW4.3km/h1uvi
25.10.2020 13:5516.8°C16.8°C16.7°C52.5%1012.0hPa0.0mm2.8km/hSSW5.0km/h0uvi
25.10.2020 14:0016.8°C16.8°C16.8°C52.5%1012.0hPa0.0mm2.7km/hSSW5.4km/h0uvi
25.10.2020 14:0516.8°C16.8°C16.7°C53.0%1012.0hPa0.0mm1.3km/hWSW4.7km/h0uvi
25.10.2020 14:1016.8°C16.8°C16.7°C52.5%1012.0hPa0.0mm0.8km/hW2.2km/h0uvi
25.10.2020 14:1516.9°C17.0°C16.8°C52.2%1012.0hPa0.0mm1.1km/hWSW4.7km/h0uvi
25.10.2020 14:2017.1°C17.2°C17.0°C50.0%1012.0hPa0.0mm1.6km/hSSW5.0km/h0uvi
25.10.2020 14:2517.1°C17.2°C17.1°C49.0%1011.0hPa0.0mm1.1km/hNE5.4km/h0uvi
25.10.2020 14:3017.2°C17.2°C17.1°C48.4%1011.0hPa0.0mm1.1km/hSSW5.4km/h0uvi
25.10.2020 14:3517.2°C17.3°C17.1°C48.7%1011.0hPa0.0mm3.0km/hWSW5.8km/h0uvi
25.10.2020 14:4017.3°C17.3°C17.2°C48.2%1011.0hPa0.0mm1.7km/hWSW4.3km/h0uvi
25.10.2020 14:4517.4°C17.5°C17.3°C48.8%1011.0hPa0.0mm0.4km/hWSW2.2km/h0uvi
25.10.2020 14:5017.4°C17.5°C17.4°C49.0%1011.0hPa0.0mm2.5km/hSSW5.4km/h0uvi
25.10.2020 14:5517.3°C17.3°C17.2°C49.3%1011.0hPa0.0mm3.7km/hSSW4.7km/h0uvi
25.10.2020 15:0017.2°C17.2°C17.2°C49.0%1011.0hPa0.0mm2.2km/hSSW4.0km/h0uvi
25.10.2020 15:0517.3°C17.3°C17.2°C49.7%1011.0hPa0.0mm1.3km/hWSW4.7km/h0uvi
25.10.2020 15:1017.4°C17.5°C17.4°C50.3%1011.0hPa0.0mm0.2km/hSSW4.3km/h0uvi
25.10.2020 15:1517.5°C17.5°C17.4°C50.3%1011.0hPa0.0mm1.6km/hSSW4.0km/h0uvi
25.10.2020 15:2017.4°C17.4°C17.4°C50.6%1011.0hPa0.0mm2.0km/hWSW4.0km/h0uvi
25.10.2020 15:2517.3°C17.4°C17.3°C50.0%1011.0hPa0.0mm1.5km/hWSW3.6km/h0uvi
25.10.2020 15:3017.2°C17.2°C17.2°C50.0%1011.0hPa0.0mm1.8km/hWNW4.7km/h0uvi
25.10.2020 15:3517.1°C17.2°C17.0°C49.5%1011.0hPa0.0mm2.4km/hSSW4.7km/h0uvi
25.10.2020 15:4016.8°C16.9°C16.7°C50.3%1011.0hPa0.0mm3.5km/hSSW5.4km/h0uvi
25.10.2020 15:4516.5°C16.6°C16.4°C54.3%1011.0hPa0.0mm3.2km/hSSW5.4km/h0uvi
25.10.2020 15:5016.2°C16.3°C16.0°C56.6%1011.0hPa0.0mm3.7km/hSSE5.4km/h0uvi
25.10.2020 15:5515.9°C16.0°C15.8°C58.2%1011.0hPa0.0mm3.4km/hS5.0km/h0uvi
25.10.2020 16:0015.7°C15.7°C15.7°C60.0%1011.0hPa0.0mm1.9km/hSSW3.2km/h0uvi
25.10.2020 16:0515.4°C15.5°C15.4°C62.0%1011.0hPa0.0mm1.4km/hSSE4.3km/h0uvi
25.10.2020 16:1015.3°C15.3°C15.2°C63.0%1011.0hPa0.0mm1.8km/hSSW3.6km/h0uvi
25.10.2020 16:1515.1°C15.1°C15.0°C64.0%1011.0hPa0.0mm0.5km/hSSE2.2km/h0uvi
25.10.2020 16:2014.9°C15.0°C14.9°C65.2%1011.0hPa0.0mm0.7km/hS4.0km/h0uvi
25.10.2020 16:2514.9°C14.9°C14.9°C67.0%1011.0hPa0.0mm1.5km/hSSW3.2km/h0uvi
25.10.2020 16:3014.8°C14.8°C14.7°C67.2%1011.0hPa0.0mm1.7km/hSSW4.0km/h0uvi
25.10.2020 16:3514.6°C14.7°C14.6°C69.0%1011.0hPa0.0mm2.7km/hSSE5.4km/h0uvi
25.10.2020 16:4014.5°C14.5°C14.5°C69.0%1011.0hPa0.0mm1.0km/hSSW3.2km/h0uvi
25.10.2020 16:4514.4°C14.5°C14.4°C69.4%1011.0hPa0.0mm2.0km/hSSW4.7km/h0uvi
25.10.2020 16:5014.3°C14.4°C14.2°C70.0%1011.0hPa0.0mm1.3km/hSSW2.2km/h0uvi
25.10.2020 16:5514.1°C14.2°C14.1°C70.0%1011.0hPa0.0mm0.4km/hSSW3.2km/h0uvi
25.10.2020 17:0014.0°C14.1°C14.0°C70.8%1011.0hPa0.0mm0.5km/hSSW3.2km/h0uvi
25.10.2020 17:0513.8°C13.9°C13.8°C71.0%1011.0hPa0.0mm0.0km/hSSW0.0km/h0uvi
25.10.2020 17:1013.7°C13.7°C13.7°C71.7%1011.0hPa0.0mm0.2km/hSSW2.5km/h0uvi
25.10.2020 17:1513.5°C13.6°C13.5°C72.2%1011.0hPa0.0mm1.5km/hSSE3.6km/h0uvi
25.10.2020 17:2013.5°C13.5°C13.5°C74.2%1011.0hPa0.0mm4.6km/hSSW10.1km/h0uvi
25.10.2020 17:2513.5°C13.5°C13.4°C75.0%1011.0hPa0.0mm4.5km/hSSW7.9km/h0uvi
25.10.2020 17:3013.4°C13.4°C13.4°C75.0%1011.0hPa0.0mm4.1km/hSSW6.5km/h0uvi
25.10.2020 17:3513.4°C13.4°C13.4°C75.0%1011.0hPa0.0mm4.2km/hSSW6.8km/h0uvi
25.10.2020 17:4013.3°C13.3°C13.3°C75.0%1011.0hPa0.0mm4.8km/hSSW6.5km/h0uvi
25.10.2020 17:4513.3°C13.4°C13.3°C75.0%1011.0hPa0.0mm3.3km/hSSW6.5km/h0uvi
25.10.2020 17:5013.4°C13.4°C13.4°C75.0%1011.0hPa0.0mm3.9km/hSSW6.1km/h0uvi
25.10.2020 17:5513.4°C13.4°C13.4°C75.0%1011.0hPa0.0mm4.1km/hSSW6.1km/h0uvi
25.10.2020 18:0013.4°C13.4°C13.4°C74.3%1011.0hPa0.0mm2.9km/hSSW5.0km/h0uvi
25.10.2020 18:0513.3°C13.3°C13.3°C74.0%1011.0hPa0.0mm4.1km/hSSW6.8km/h0uvi
25.10.2020 18:1013.3°C13.3°C13.3°C74.0%1011.0hPa0.0mm4.3km/hSSW5.4km/h0uvi
25.10.2020 18:1513.3°C13.3°C13.3°C74.2%1011.0hPa0.0mm4.5km/hSSW6.8km/h0uvi
25.10.2020 18:2013.2°C13.3°C13.2°C75.0%1011.0hPa0.0mm2.5km/hWSW5.4km/h0uvi
25.10.2020 18:2513.1°C13.2°C13.1°C75.7%1011.0hPa0.0mm2.1km/hSSW5.4km/h0uvi
25.10.2020 18:3013.1°C13.1°C13.0°C76.0%1011.0hPa0.0mm0.7km/hSSW3.2km/h0uvi
25.10.2020 18:3513.0°C13.0°C13.0°C76.0%1011.2hPa0.0mm0.0km/hWSW0.0km/h0uvi
25.10.2020 18:4013.0°C13.0°C13.0°C76.0%1012.0hPa0.0mm1.1km/hWSW4.3km/h0uvi
25.10.2020 18:4512.8°C12.9°C12.8°C78.8%1012.0hPa0.0mm2.6km/hSSW4.0km/h0uvi
25.10.2020 18:5012.7°C12.8°C12.7°C79.0%1012.0hPa0.0mm0.2km/hWSW2.5km/h0uvi
25.10.2020 18:5512.7°C12.7°C12.7°C79.5%1012.0hPa0.0mm0.3km/hWNW2.2km/h0uvi
25.10.2020 19:0012.6°C12.7°C12.6°C80.0%1012.0hPa0.0mm0.0km/hNW0.0km/h0uvi
25.10.2020 19:0512.6°C12.6°C12.6°C80.0%1012.0hPa0.0mm0.7km/hSSW2.5km/h0uvi
25.10.2020 19:1012.6°C12.6°C12.5°C80.0%1012.0hPa0.0mm0.2km/hWSW2.5km/h0uvi
25.10.2020 19:1512.5°C12.5°C12.5°C80.8%1012.0hPa0.0mm0.0km/hW0.0km/h0uvi
25.10.2020 19:2012.5°C12.5°C12.5°C80.3%1012.0hPa0.0mm0.0km/hW1.8km/h0uvi
25.10.2020 19:2512.4°C12.5°C12.4°C81.0%1012.0hPa0.0mm0.0km/hWNW0.0km/h0uvi
25.10.2020 19:3012.4°C12.4°C12.4°C81.0%1012.0hPa0.0mm1.5km/hSSW3.2km/h0uvi
25.10.2020 19:3512.3°C12.4°C12.3°C81.0%1012.0hPa0.0mm0.2km/hSSW2.2km/h0uvi
25.10.2020 19:4012.3°C12.3°C12.3°C81.8%1012.0hPa0.0mm2.9km/hSSW5.4km/h0uvi
25.10.2020 19:4512.3°C12.3°C12.3°C81.0%1012.0hPa0.0mm4.5km/hSSW6.8km/h0uvi
25.10.2020 19:5012.3°C12.3°C12.3°C79.0%1012.0hPa0.0mm2.2km/hSSW4.7km/h0uvi
25.10.2020 19:5512.3°C12.3°C12.3°C79.0%1012.0hPa0.0mm1.2km/hSW4.0km/h0uvi
25.10.2020 20:0012.3°C12.3°C12.3°C79.0%1012.0hPa0.0mm0.0km/hWSW2.2km/h0uvi
25.10.2020 20:0512.3°C12.3°C12.3°C80.0%1012.0hPa0.0mm0.0km/hWSW1.8km/h0uvi
25.10.2020 20:1012.2°C12.3°C12.2°C80.0%1012.0hPa0.0mm0.0km/hNW1.4km/h0uvi
25.10.2020 20:1512.2°C12.2°C12.2°C80.6%1012.0hPa0.0mm0.0km/hNW0.0km/h0uvi
25.10.2020 20:2012.2°C12.2°C12.1°C81.0%1012.0hPa0.0mm0.0km/hWSW4.0km/h0uvi
25.10.2020 20:2512.1°C12.1°C12.1°C81.4%1012.0hPa0.0mm0.2km/hSSW2.5km/h0uvi
25.10.2020 20:3012.1°C12.1°C12.1°C83.0%1012.0hPa0.0mm1.9km/hSSW4.0km/h0uvi
25.10.2020 20:3512.1°C12.1°C12.1°C85.5%1012.0hPa0.0mm3.1km/hSSW4.3km/h0uvi
25.10.2020 20:4012.1°C12.1°C12.1°C86.0%1012.0hPa0.0mm2.4km/hWSW3.6km/h0uvi
25.10.2020 20:4512.1°C12.1°C12.1°C86.0%1012.0hPa0.0mm0.0km/hWSW0.0km/h0uvi
25.10.2020 20:5012.1°C12.1°C12.1°C86.0%1012.0hPa0.0mm0.0km/hWSW1.8km/h0uvi
25.10.2020 20:5512.1°C12.1°C12.1°C86.0%1012.0hPa0.0mm0.0km/hWNW0.0km/h0uvi
25.10.2020 21:0012.1°C12.1°C12.1°C86.0%1012.0hPa0.0mm0.0km/hWNW0.0km/h0uvi
25.10.2020 21:0512.1°C12.1°C12.1°C86.0%1012.0hPa0.0mm0.0km/hWNW0.0km/h0uvi
25.10.2020 21:1012.1°C12.1°C12.1°C85.0%1012.0hPa0.0mm0.0km/hSSE0.0km/h0uvi
25.10.2020 21:1512.0°C12.0°C12.0°C85.0%1012.0hPa0.0mm0.0km/hSSE0.0km/h0uvi
25.10.2020 21:2011.9°C11.9°C11.9°C86.0%1012.0hPa0.0mm0.0km/hSSE0.0km/h0uvi
25.10.2020 21:2511.9°C11.9°C11.9°C86.0%1012.0hPa0.0mm0.0km/hSSE1.8km/h0uvi
25.10.2020 21:3011.9°C11.9°C11.9°C86.0%1012.0hPa0.0mm0.5km/hSSE2.5km/h0uvi
25.10.2020 21:3511.9°C11.9°C11.9°C86.0%1012.0hPa0.0mm0.7km/hSSW2.5km/h0uvi
25.10.2020 21:4011.9°C11.9°C11.9°C86.0%1012.0hPa0.0mm0.0km/hSSW1.4km/h0uvi
25.10.2020 21:4511.9°C11.9°C11.9°C86.0%1012.0hPa0.0mm0.0km/hSSW0.0km/h0uvi
25.10.2020 21:5011.9°C11.9°C11.9°C86.0%1012.0hPa0.0mm0.0km/hSSW0.0km/h0uvi
25.10.2020 21:5511.9°C11.9°C11.9°C86.0%1012.0hPa0.0mm0.9km/hSSW3.6km/h0uvi
25.10.2020 22:0011.9°C11.9°C11.9°C86.0%1012.0hPa0.0mm0.6km/hENE0.0km/h0uvi
25.10.2020 22:0511.8°C11.9°C11.8°C86.0%1011.8hPa0.0mm0.0km/hNE2.5km/h0uvi
25.10.2020 22:1011.8°C11.8°C11.7°C85.5%1011.0hPa0.0mm0.6km/hSSE1.8km/h0uvi
25.10.2020 22:1511.7°C11.7°C11.6°C86.0%1011.0hPa0.0mm0.0km/hSE0.0km/h0uvi
25.10.2020 22:2011.6°C11.6°C11.6°C86.0%1011.0hPa0.0mm0.0km/hNE0.0km/h0uvi
25.10.2020 22:2511.5°C11.6°C11.5°C86.0%1011.0hPa0.0mm0.3km/hNE2.2km/h0uvi
25.10.2020 22:3011.4°C11.5°C11.4°C86.0%1011.0hPa0.0mm0.0km/hNE1.8km/h0uvi
25.10.2020 22:3511.4°C11.4°C11.4°C86.0%1011.0hPa0.0mm0.0km/hSSE0.0km/h0uvi
25.10.2020 22:4011.4°C11.4°C11.3°C86.7%1011.0hPa0.0mm0.0km/hSSE0.0km/h0uvi
25.10.2020 22:4511.3°C11.3°C11.3°C87.0%1011.0hPa0.0mm0.5km/hSSE2.5km/h0uvi
25.10.2020 22:5011.3°C11.3°C11.3°C87.0%1011.0hPa0.0mm0.9km/hSSW3.2km/h0uvi
25.10.2020 22:5511.3°C11.3°C11.3°C87.5%1011.0hPa0.0mm0.4km/hSSE2.5km/h0uvi
25.10.2020 23:0011.3°C11.4°C11.3°C88.0%1011.0hPa0.0mm0.0km/hNW1.8km/h0uvi
25.10.2020 23:0511.5°C11.5°C11.4°C89.0%1011.0hPa0.0mm0.0km/hNW1.8km/h0uvi
25.10.2020 23:1011.6°C11.6°C11.5°C89.2%1011.0hPa0.0mm0.6km/hNW2.2km/h0uvi
25.10.2020 23:1511.7°C11.7°C11.7°C90.0%1011.0hPa0.0mm0.0km/hNW2.2km/h0uvi
25.10.2020 23:2011.7°C11.7°C11.7°C90.0%1011.0hPa0.0mm0.0km/hWSW2.2km/h0uvi
25.10.2020 23:2511.7°C11.7°C11.7°C90.0%1011.0hPa0.0mm0.7km/hNW3.2km/h0uvi
25.10.2020 23:3011.7°C11.7°C11.7°C90.0%1011.0hPa0.0mm1.0km/hSE4.0km/h0uvi
25.10.2020 23:3511.7°C11.7°C11.7°C90.0%1011.0hPa0.0mm0.0km/hSE0.0km/h0uvi
25.10.2020 23:4011.7°C11.7°C11.7°C90.0%1011.0hPa0.0mm0.0km/hSE0.0km/h0uvi
25.10.2020 23:4511.6°C11.7°C11.6°C90.0%1011.0hPa0.0mm0.0km/hENE1.4km/h0uvi
25.10.2020 23:5011.6°C11.6°C11.6°C90.0%1011.0hPa0.0mm0.0km/hENE0.0km/h0uvi
25.10.2020 23:5511.5°C11.6°C11.5°C89.8%1011.0hPa0.0mm0.1km/hENE1.8km/h0uvi
26.10.2020 00:0011.5°C11.5°C11.5°C90.0%1011.0hPa0.0mm0.8km/hSE3.2km/h0uvi
26.10.2020 00:0511.5°C11.5°C11.5°C90.0%1011.0hPa0.0mm0.4km/hSE2.2km/h0uvi
26.10.2020 00:1011.5°C11.5°C11.5°C90.0%1011.0hPa0.0mm0.6km/hSE2.2km/h0uvi
26.10.2020 00:1511.5°C11.5°C11.5°C90.3%1011.0hPa0.0mm0.7km/hSSE2.5km/h0uvi
26.10.2020 00:2011.5°C11.5°C11.5°C91.0%1011.0hPa0.0mm0.0km/hS1.8km/h0uvi
26.10.2020 00:2511.5°C11.5°C11.5°C91.0%1011.0hPa0.0mm0.3km/hS3.2km/h0uvi
26.10.2020 00:3011.6°C11.6°C11.6°C91.0%1011.0hPa0.0mm0.6km/hESE2.2km/h0uvi
26.10.2020 00:3511.6°C11.6°C11.6°C92.0%1011.0hPa0.0mm0.0km/hWNW0.0km/h0uvi
26.10.2020 00:4011.6°C11.7°C11.6°C92.0%1011.0hPa0.0mm0.0km/hWSW0.0km/h0uvi
26.10.2020 00:4511.6°C11.6°C11.6°C91.2%1011.0hPa0.0mm1.6km/hSE4.7km/h0uvi
26.10.2020 00:5011.6°C11.6°C11.6°C91.0%1011.0hPa0.0mm2.1km/hSE3.2km/h0uvi
26.10.2020 00:5511.5°C11.5°C11.5°C91.0%1011.0hPa0.0mm2.8km/hSE4.3km/h0uvi
26.10.2020 01:0011.4°C11.4°C11.4°C91.0%1011.0hPa0.0mm0.7km/hSE2.2km/h0uvi
26.10.2020 01:0511.4°C11.4°C11.4°C91.0%1010.9hPa0.0mm1.5km/hSSW4.7km/h0uvi
26.10.2020 01:1011.4°C11.4°C11.4°C91.0%1010.0hPa0.0mm0.0km/hWSW0.0km/h0uvi
26.10.2020 01:1511.4°C11.4°C11.4°C91.5%1010.0hPa0.0mm0.0km/hNW0.0km/h0uvi
26.10.2020 01:2011.4°C11.4°C11.4°C92.0%1010.0hPa0.0mm0.0km/hNW0.0km/h0uvi
26.10.2020 01:2511.4°C11.4°C11.4°C92.0%1010.0hPa0.0mm0.0km/hNW0.0km/h0uvi
26.10.2020 01:3011.3°C11.3°C11.3°C92.0%1010.0hPa0.0mm1.2km/hSE2.5km/h0uvi
26.10.2020 01:3511.3°C11.3°C11.2°C92.0%1010.0hPa0.0mm2.0km/hSE3.2km/h0uvi
26.10.2020 01:4011.2°C11.2°C11.2°C92.0%1010.0hPa0.0mm0.5km/hSE2.2km/h0uvi
26.10.2020 01:4511.3°C11.3°C11.2°C92.0%1010.0hPa0.0mm0.3km/hSSE2.5km/h0uvi
26.10.2020 01:5011.3°C11.3°C11.3°C92.0%1010.0hPa0.0mm0.0km/hENE1.4km/h0uvi
26.10.2020 01:5511.3°C11.3°C11.3°C92.0%1010.0hPa0.0mm0.0km/hENE0.0km/h0uvi
26.10.2020 02:0011.3°C11.3°C11.3°C92.0%1010.0hPa0.0mm0.0km/hENE1.8km/h0uvi
26.10.2020 02:0511.3°C11.3°C11.3°C92.0%1010.0hPa0.0mm0.0km/hENE0.0km/h0uvi
26.10.2020 02:1011.3°C11.3°C11.3°C92.0%1010.0hPa0.0mm0.3km/hENE1.8km/h0uvi
26.10.2020 02:1511.3°C11.3°C11.3°C92.0%1010.0hPa0.0mm0.0km/hENE0.0km/h0uvi
26.10.2020 02:2011.3°C11.3°C11.3°C92.0%1010.0hPa0.0mm0.2km/hSSE2.2km/h0uvi
26.10.2020 02:2511.2°C11.3°C11.2°C92.0%1009.1hPa0.0mm0.0km/hSSE0.0km/h0uvi
26.10.2020 02:3011.3°C11.3°C11.2°C92.0%1009.0hPa0.0mm0.0km/hENE0.0km/h0uvi
26.10.2020 02:3511.3°C11.3°C11.3°C92.0%1009.2hPa0.0mm0.0km/hENE0.0km/h0uvi
26.10.2020 02:4011.2°C11.2°C11.2°C92.0%1010.0hPa0.0mm1.2km/hSE3.2km/h0uvi
26.10.2020 02:4511.2°C11.2°C11.2°C92.0%1010.0hPa0.0mm1.7km/hSE3.2km/h0uvi
26.10.2020 02:5011.2°C11.2°C11.2°C92.0%1010.0hPa0.0mm1.0km/hSE2.2km/h0uvi
26.10.2020 02:5511.2°C11.2°C11.2°C92.0%1010.0hPa0.0mm0.7km/hNE2.5km/h0uvi
26.10.2020 03:0011.3°C11.3°C11.3°C92.6%1010.0hPa0.0mm0.0km/hNE0.0km/h0uvi
26.10.2020 03:0511.2°C11.2°C11.2°C93.0%1010.0hPa0.0mm0.1km/hNE2.2km/h0uvi
26.10.2020 03:1011.2°C11.2°C11.2°C93.0%1010.0hPa0.0mm0.5km/hESE2.5km/h0uvi
26.10.2020 03:1511.2°C11.2°C11.2°C93.0%1010.0hPa0.0mm0.0km/hNE1.8km/h0uvi
26.10.2020 03:2011.2°C11.2°C11.2°C93.0%1010.0hPa0.0mm0.0km/hNE0.0km/h0uvi
26.10.2020 03:2511.2°C11.2°C11.2°C93.0%1010.0hPa0.0mm0.0km/hNE0.0km/h0uvi
26.10.2020 03:3011.2°C11.2°C11.2°C93.0%1010.0hPa0.0mm0.0km/hE0.0km/h0uvi
26.10.2020 03:3511.2°C11.2°C11.2°C93.0%1010.0hPa0.0mm0.0km/hE1.4km/h0uvi
26.10.2020 03:4011.3°C11.3°C11.2°C93.0%1010.0hPa0.3mm0.0km/hSSW0.0km/h0uvi
26.10.2020 03:4511.3°C11.3°C11.3°C93.2%1010.0hPa0.0mm0.0km/hNE1.4km/h0uvi
26.10.2020 03:5011.3°C11.3°C11.3°C94.0%1010.0hPa0.0mm0.0km/hNE0.0km/h0uvi
26.10.2020 03:5511.3°C11.3°C11.3°C94.0%1010.0hPa0.0mm0.0km/hESE1.8km/h0uvi
26.10.2020 04:0011.3°C11.3°C11.3°C94.0%1010.0hPa0.0mm0.0km/hSE0.0km/h0uvi
26.10.2020 04:0511.3°C11.3°C11.3°C94.0%1010.0hPa0.3mm0.0km/hSE0.0km/h0uvi
26.10.2020 04:1011.3°C11.3°C11.3°C94.0%1010.0hPa0.0mm0.0km/hSE0.0km/h0uvi
26.10.2020 04:1511.3°C11.3°C11.3°C94.0%1010.0hPa0.0mm0.0km/hSE0.0km/h0uvi
26.10.2020 04:2011.3°C11.3°C11.3°C94.0%1010.0hPa0.0mm0.0km/hSE0.0km/h0uvi
26.10.2020 04:2511.3°C11.3°C11.3°C94.0%1010.0hPa0.0mm0.6km/hSE2.5km/h0uvi
26.10.2020 04:3011.3°C11.3°C11.3°C94.0%1010.0hPa0.0mm0.9km/hSE3.2km/h0uvi
26.10.2020 04:3511.3°C11.3°C11.3°C94.3%1010.0hPa0.0mm0.0km/hSSE0.0km/h0uvi
26.10.2020 04:4011.3°C11.3°C11.3°C95.0%1010.0hPa0.2mm0.0km/hE1.4km/h0uvi
26.10.2020 04:4511.3°C11.3°C11.3°C95.0%1010.0hPa0.0mm0.0km/hENE0.0km/h0uvi
26.10.2020 04:5011.3°C11.3°C11.3°C95.0%1010.0hPa0.0mm0.0km/hENE0.0km/h0uvi
26.10.2020 04:5511.3°C11.3°C11.3°C95.0%1010.0hPa0.0mm0.0km/hENE0.0km/h0uvi
26.10.2020 05:0011.3°C11.3°C11.3°C95.0%1010.0hPa0.0mm0.0km/hENE0.0km/h0uvi
26.10.2020 05:0511.3°C11.3°C11.3°C95.0%1010.0hPa0.0mm0.8km/hSSE2.2km/h0uvi
26.10.2020 05:1011.3°C11.3°C11.3°C95.0%1010.0hPa0.0mm0.0km/hENE1.4km/h0uvi
26.10.2020 05:1511.2°C11.3°C11.2°C95.0%1010.0hPa0.0mm0.0km/hENE2.2km/h0uvi
26.10.2020 05:2011.3°C11.3°C11.3°C95.0%1010.0hPa0.0mm0.0km/hSE0.0km/h0uvi
26.10.2020 05:2511.3°C11.3°C11.2°C95.0%1009.0hPa0.0mm1.4km/hENE3.6km/h0uvi
26.10.2020 05:3011.3°C11.3°C11.2°C95.0%1009.0hPa0.0mm0.4km/hNE1.8km/h0uvi
26.10.2020 05:3511.3°C11.3°C11.3°C95.0%1009.0hPa0.3mm0.9km/hSSE2.2km/h0uvi
26.10.2020 05:4011.3°C11.3°C11.2°C95.4%1009.0hPa0.0mm0.0km/hENE1.8km/h0uvi
26.10.2020 05:4511.2°C11.2°C11.2°C96.0%1009.0hPa0.0mm0.0km/hSSE1.4km/h0uvi
26.10.2020 05:5011.2°C11.2°C11.2°C96.0%1009.0hPa0.0mm0.0km/hESE0.0km/h0uvi
26.10.2020 05:5511.3°C11.3°C11.2°C96.0%1009.0hPa0.0mm0.7km/hNE2.5km/h0uvi
26.10.2020 06:0011.3°C11.3°C11.3°C96.0%1009.0hPa0.0mm1.2km/hSSW2.5km/h0uvi
26.10.2020 06:0511.3°C11.4°C11.3°C96.3%1008.7hPa0.0mm1.1km/hNE3.2km/h0uvi
26.10.2020 06:1011.3°C11.3°C11.3°C97.0%1008.0hPa0.0mm0.3km/hNE1.4km/h0uvi
26.10.2020 06:1511.3°C11.3°C11.3°C97.0%1008.0hPa0.0mm1.3km/hSE2.2km/h0uvi
26.10.2020 06:2011.3°C11.3°C11.3°C97.0%1008.0hPa0.0mm0.1km/hSE3.2km/h0uvi
26.10.2020 06:2511.3°C11.4°C11.3°C97.0%1008.0hPa0.0mm2.4km/hENE4.3km/h0uvi
26.10.2020 06:3011.3°C11.3°C11.3°C97.0%1008.0hPa0.0mm0.2km/hSE2.2km/h0uvi
26.10.2020 06:3511.3°C11.3°C11.3°C97.0%1008.0hPa0.2mm0.4km/hENE3.2km/h0uvi
26.10.2020 06:4011.2°C11.3°C11.2°C97.0%1008.0hPa0.0mm0.0km/hENE2.2km/h0uvi
26.10.2020 06:4511.2°C11.3°C11.2°C97.0%1008.0hPa0.0mm1.0km/hNE3.2km/h0uvi
26.10.2020 06:5011.2°C11.3°C11.2°C97.0%1008.0hPa0.0mm0.1km/hS2.2km/h0uvi
26.10.2020 06:5511.3°C11.3°C11.3°C97.8%1008.0hPa0.0mm0.2km/hENE1.8km/h0uvi
26.10.2020 07:0011.3°C11.3°C11.3°C98.0%1008.0hPa0.0mm0.4km/hSE1.8km/h0uvi
26.10.2020 07:0511.3°C11.3°C11.3°C98.0%1008.2hPa0.0mm0.0km/hSE0.0km/h0uvi
26.10.2020 07:1011.3°C11.3°C11.3°C98.0%1009.0hPa0.0mm0.0km/hSE0.0km/h0uvi
26.10.2020 07:1511.3°C11.3°C11.3°C98.0%1009.0hPa0.0mm0.2km/hENE3.2km/h0uvi
26.10.2020 07:2011.3°C11.3°C11.3°C98.0%1008.8hPa0.0mm0.5km/hSSE2.5km/h0uvi
26.10.2020 07:2511.3°C11.4°C11.3°C98.0%1008.0hPa0.0mm0.7km/hSSE3.2km/h0uvi
26.10.2020 07:3011.3°C11.4°C11.3°C98.0%1008.0hPa0.0mm0.2km/hSSE0.0km/h0uvi
26.10.2020 07:3511.4°C11.4°C11.4°C98.0%1008.0hPa0.0mm0.0km/hSSE2.2km/h0uvi
26.10.2020 07:4011.4°C11.4°C11.4°C98.0%1009.0hPa0.0mm0.5km/hSSE3.6km/h0uvi
26.10.2020 07:4511.5°C11.5°C11.4°C98.0%1009.0hPa0.0mm1.4km/hNE4.0km/h0uvi
26.10.2020 07:5011.6°C11.6°C11.5°C98.0%1008.8hPa0.0mm0.5km/hNE